createdAt,value
2023-10-11T00:01:48.051Z,57.27
2023-10-11T00:04:50.942Z,57.29
2023-10-11T00:07:58.806Z,57.38
2023-10-11T00:11:02.343Z,57.43
2023-10-11T00:14:05.820Z,57.38
2023-10-11T00:17:10.064Z,57.40
2023-10-11T00:20:20.984Z,57.27
2023-10-11T00:23:26.596Z,57.33
2023-10-11T00:26:29.753Z,57.36
2023-10-11T00:29:40.295Z,57.30
2023-10-11T00:32:44.058Z,57.40
2023-10-11T00:35:49.100Z,57.28
2023-10-11T00:38:53.404Z,57.33
2023-10-11T00:41:57.366Z,57.25
2023-10-11T00:45:02.164Z,57.25
2023-10-11T00:48:08.032Z,57.23
2023-10-11T00:51:11.625Z,57.34
2023-10-11T00:54:18.086Z,57.31
2023-10-11T00:57:22.270Z,57.37
2023-10-11T01:00:25.278Z,57.26
2023-10-11T01:03:32.720Z,57.34
2023-10-11T01:06:35.952Z,57.33
2023-10-11T01:09:42.014Z,57.32
2023-10-11T01:12:44.866Z,57.37
2023-10-11T01:15:48.838Z,57.36
2023-10-11T01:18:51.716Z,57.35
2023-10-11T01:22:00.264Z,57.36
2023-10-11T01:25:05.008Z,57.51
2023-10-11T01:28:08.835Z,57.45
2023-10-11T01:31:11.748Z,57.49
2023-10-11T01:34:16.738Z,57.44
2023-10-11T01:37:21.251Z,57.54
2023-10-11T01:40:25.648Z,57.49
2023-10-11T01:43:29.383Z,57.49
2023-10-11T01:46:36.557Z,57.42
2023-10-11T01:49:40.842Z,57.49
2023-10-11T01:52:48.970Z,57.33
2023-10-11T01:55:55.468Z,57.53
2023-10-11T01:59:01.919Z,57.50
2023-10-11T02:02:05.047Z,57.47
2023-10-11T02:05:11.993Z,57.44
2023-10-11T02:08:18.239Z,57.50
2023-10-11T02:11:24.831Z,57.54
2023-10-11T02:14:29.306Z,57.61
2023-10-11T02:17:34.886Z,57.60
2023-10-11T02:20:45.274Z,57.60
2023-10-11T02:23:49.525Z,57.57
2023-10-11T02:26:52.403Z,57.62
2023-10-11T02:29:55.336Z,57.59
2023-10-11T02:33:00.472Z,57.40
2023-10-11T02:36:09.765Z,57.53
2023-10-11T02:39:21.306Z,57.61
2023-10-11T02:42:24.765Z,57.41
2023-10-11T02:45:27.648Z,57.54
2023-10-11T02:48:30.868Z,57.56
2023-10-11T02:51:34.772Z,57.57
2023-10-11T02:54:41.762Z,57.55
2023-10-11T02:57:45.461Z,57.56
2023-10-11T03:00:49.788Z,57.60
2023-10-11T03:03:54.124Z,57.51
2023-10-11T03:07:01.549Z,57.54
2023-10-11T03:10:15.047Z,57.64
2023-10-11T03:13:20.817Z,57.53
2023-10-11T03:16:24.979Z,57.58
2023-10-11T03:19:27.806Z,57.56
2023-10-11T03:22:33.082Z,57.58
2023-10-11T03:25:39.108Z,57.49
2023-10-11T03:28:42.469Z,57.62
2023-10-11T03:31:45.666Z,57.52
2023-10-11T03:34:48.635Z,57.61
2023-10-11T03:37:59.403Z,57.56
2023-10-11T03:41:16.377Z,57.54
2023-10-11T03:44:21.390Z,57.59
2023-10-11T03:47:25.868Z,57.53
2023-10-11T03:50:35.411Z,57.56
2023-10-11T03:53:40.636Z,57.64
2023-10-11T03:56:52.101Z,57.62
2023-10-11T03:59:59.301Z,57.59
2023-10-11T04:03:06.497Z,57.45
2023-10-11T04:06:16.133Z,57.48
2023-10-11T04:09:37.977Z,57.43
2023-10-11T04:12:43.523Z,57.29
2023-10-11T04:15:50.530Z,57.34
2023-10-11T04:18:53.856Z,57.23
2023-10-11T04:21:57.350Z,57.29
2023-10-11T04:25:07.976Z,57.44
2023-10-11T04:28:13.669Z,57.34
2023-10-11T04:31:29.762Z,57.29
2023-10-11T04:34:33.856Z,57.31
2023-10-11T04:37:45.184Z,57.42
2023-10-11T04:40:52.723Z,57.46
2023-10-11T04:44:06.011Z,57.32
2023-10-11T04:47:08.824Z,57.60
2023-10-11T04:50:12.795Z,58.69
2023-10-11T04:53:19.684Z,59.36
2023-10-11T04:56:40.383Z,58.84
2023-10-11T04:59:47.817Z,57.99
2023-10-11T05:02:59.553Z,57.73
2023-10-11T05:06:14.057Z,57.66
2023-10-11T05:09:23.137Z,57.54
2023-10-11T05:12:26.135Z,57.49
2023-10-11T05:15:35.742Z,57.54
2023-10-11T05:18:39.384Z,57.49
2023-10-11T05:21:46.452Z,57.52
2023-10-11T05:25:13.570Z,57.57
2023-10-11T05:28:28.840Z,57.74
2023-10-11T05:31:45.929Z,57.70
2023-10-11T05:34:52.045Z,57.64
2023-10-11T05:38:13.112Z,57.65
2023-10-11T05:41:33.978Z,57.59
2023-10-11T05:44:54.376Z,57.67
2023-10-11T05:48:16.557Z,57.73
2023-10-11T05:51:20.561Z,57.71
2023-10-11T05:54:23.745Z,57.72
2023-10-11T05:57:29.283Z,57.81
2023-10-11T06:00:36.077Z,57.79
2023-10-11T06:03:40.333Z,57.77
2023-10-11T06:06:43.931Z,57.88
2023-10-11T06:09:48.050Z,57.81
2023-10-11T06:12:50.897Z,57.86
2023-10-11T06:16:01.388Z,57.75
2023-10-11T06:19:18.683Z,57.78
2023-10-11T06:22:23.715Z,57.88
2023-10-11T06:25:50.803Z,57.89
2023-10-11T06:29:04.052Z,57.92
2023-10-11T06:32:20.060Z,57.92
2023-10-11T06:35:25.893Z,57.84
2023-10-11T06:38:38.748Z,57.85
2023-10-11T06:41:47.301Z,57.84
2023-10-11T06:44:51.199Z,57.76
2023-10-11T06:47:54.235Z,57.88
2023-10-11T06:51:01.181Z,57.83
2023-10-11T06:54:04.402Z,57.93
2023-10-11T06:57:08.473Z,57.60
2023-10-11T07:00:22.572Z,57.30
2023-10-11T07:03:29.452Z,56.93
2023-10-11T07:06:36.437Z,56.76
2023-10-11T07:09:41.018Z,56.76
2023-10-11T07:12:43.864Z,56.55
2023-10-11T07:15:48.135Z,56.51
2023-10-11T07:18:55.580Z,56.67
2023-10-11T07:22:04.201Z,56.61
2023-10-11T07:25:38.019Z,56.74
2023-10-11T07:28:44.718Z,56.74
2023-10-11T07:31:54.300Z,57.04
2023-10-11T07:34:57.662Z,56.96
2023-10-11T07:38:02.361Z,57.06
2023-10-11T07:41:06.895Z,57.08
2023-10-11T07:44:10.512Z,57.15
2023-10-11T07:47:17.466Z,57.18
2023-10-11T07:50:24.130Z,57.17
2023-10-11T07:53:28.692Z,57.21
2023-10-11T07:56:34.491Z,57.39
2023-10-11T07:59:40.842Z,57.48
2023-10-11T08:02:44.040Z,57.54
2023-10-11T08:05:47.588Z,57.44
2023-10-11T08:08:52.187Z,57.47
2023-10-11T08:11:57.749Z,57.42
2023-10-11T08:15:06.461Z,57.47
2023-10-11T08:18:09.956Z,57.44
2023-10-11T08:21:13.228Z,57.55
2023-10-11T08:24:17.754Z,57.48
2023-10-11T08:27:29.437Z,57.48
2023-10-11T08:30:33.168Z,57.49
2023-10-11T08:33:36.006Z,57.58
2023-10-11T08:36:38.918Z,57.59
2023-10-11T08:39:45.595Z,57.57
2023-10-11T08:42:50.624Z,57.67
2023-10-11T08:46:02.201Z,57.68
2023-10-11T08:49:06.038Z,58.05
2023-10-11T08:52:11.442Z,58.20
2023-10-11T08:55:20.538Z,58.13
2023-10-11T08:58:31.441Z,58.12
2023-10-11T09:01:37.828Z,58.21
2023-10-11T09:04:57.142Z,58.19
2023-10-11T09:08:03.324Z,58.09
2023-10-11T09:11:13.879Z,58.08
2023-10-11T09:14:24.009Z,58.07
2023-10-11T09:17:28.231Z,57.93
2023-10-11T09:20:41.625Z,57.99
2023-10-11T09:23:47.874Z,58.02
2023-10-11T09:27:13.883Z,58.06
2023-10-11T09:30:23.833Z,57.97
2023-10-11T09:33:36.721Z,58.09
2023-10-11T09:36:41.329Z,58.11
2023-10-11T09:39:44.827Z,58.02
2023-10-11T09:42:51.274Z,58.05
2023-10-11T09:45:55.838Z,58.05
2023-10-11T09:49:01.177Z,57.92
2023-10-11T09:52:08.684Z,57.94
2023-10-11T09:55:19.043Z,57.95
2023-10-11T09:58:33.485Z,57.93
2023-10-11T10:01:43.979Z,57.97
2023-10-11T10:04:56.680Z,57.93
2023-10-11T10:08:15.467Z,57.90
2023-10-11T10:11:20.782Z,57.93
2023-10-11T10:14:25.293Z,57.99
2023-10-11T10:17:29.653Z,57.91
2023-10-11T10:20:46.468Z,57.85
2023-10-11T10:23:52.735Z,57.95
2023-10-11T10:26:56.364Z,57.95
2023-10-11T10:30:01.269Z,57.87
2023-10-11T10:33:21.428Z,57.99
2023-10-11T10:36:41.901Z,58.07
2023-10-11T10:40:19.211Z,57.88
2023-10-11T10:43:23.164Z,57.92
2023-10-11T10:46:27.326Z,57.83
2023-10-11T10:49:42.300Z,57.75
2023-10-11T10:52:45.429Z,57.77
2023-10-11T10:55:48.225Z,57.76
2023-10-11T10:58:51.091Z,57.78
2023-10-11T11:01:55.230Z,57.82
2023-10-11T11:05:00.421Z,57.72
2023-10-11T11:08:17.261Z,57.59
2023-10-11T11:11:28.755Z,57.83
2023-10-11T11:14:31.612Z,57.65
2023-10-11T11:17:50.487Z,57.73
2023-10-11T11:20:53.938Z,57.54
2023-10-11T11:23:56.740Z,57.74
2023-10-11T11:26:58.586Z,57.60
2023-10-11T11:30:18.275Z,57.68
2023-10-11T11:33:30.117Z,57.71
2023-10-11T11:36:36.066Z,57.71
2023-10-11T11:39:41.035Z,57.58
2023-10-11T11:42:48.603Z,57.66
2023-10-11T11:45:57.870Z,57.58
2023-10-11T11:49:10.240Z,57.66
2023-10-11T11:52:18.105Z,57.70
2023-10-11T11:55:21.826Z,57.62
2023-10-11T11:58:24.689Z,57.67
2023-10-11T12:01:27.887Z,57.12
2023-10-11T12:04:32.994Z,56.46
2023-10-11T12:07:37.110Z,56.30
2023-10-11T12:10:48.352Z,54.89
2023-10-11T12:13:51.177Z,54.96
2023-10-11T12:16:56.178Z,55.39
2023-10-11T12:20:00.666Z,55.81
2023-10-11T12:23:09.723Z,56.08
2023-10-11T12:26:12.617Z,56.22
2023-10-11T12:29:15.619Z,56.44
2023-10-11T12:32:18.797Z,56.60
2023-10-11T12:35:24.503Z,56.75
2023-10-11T12:38:27.513Z,56.67
2023-10-11T12:41:30.967Z,56.72
2023-10-11T12:44:33.788Z,56.75
2023-10-11T12:47:36.662Z,56.89
2023-10-11T12:50:41.211Z,56.85
2023-10-11T12:53:44.427Z,56.97
2023-10-11T12:56:47.626Z,56.92
2023-10-11T12:59:50.426Z,57.20
2023-10-11T13:02:53.268Z,57.13
2023-10-11T13:05:58.185Z,56.96
2023-10-11T13:09:01.089Z,56.96
2023-10-11T13:12:05.166Z,57.18
2023-10-11T13:15:09.454Z,57.24
2023-10-11T13:18:12.261Z,57.24
2023-10-11T13:21:18.096Z,57.30
2023-10-11T13:24:23.848Z,57.24
2023-10-11T13:27:27.243Z,57.14
2023-10-11T13:30:35.974Z,57.13
2023-10-11T13:33:39.734Z,57.19
2023-10-11T13:36:44.085Z,57.28
2023-10-11T13:39:48.060Z,57.18
2023-10-11T13:42:52.335Z,57.18
2023-10-11T13:46:02.699Z,57.09
2023-10-11T13:49:25.450Z,57.11
2023-10-11T13:52:29.789Z,57.00
2023-10-11T13:55:41.081Z,56.87
2023-10-11T13:58:46.944Z,56.92
2023-10-11T14:02:00.436Z,57.00
2023-10-11T14:05:16.377Z,56.94
2023-10-11T14:08:25.602Z,56.85
2023-10-11T14:11:31.247Z,56.94
2023-10-11T14:14:40.807Z,57.01
2023-10-11T14:17:45.201Z,56.94
2023-10-11T14:20:50.971Z,57.06
2023-10-11T14:23:55.254Z,56.98
2023-10-11T14:26:58.084Z,57.05
2023-10-11T14:30:01.905Z,57.01
2023-10-11T14:33:10.068Z,56.98
2023-10-11T14:36:13.147Z,56.89
2023-10-11T14:39:20.435Z,57.00
2023-10-11T14:42:23.590Z,56.97
2023-10-11T14:45:27.409Z,56.90
2023-10-11T14:48:30.327Z,57.01
2023-10-11T14:51:33.251Z,57.09
2023-10-11T14:54:40.670Z,57.15
2023-10-11T14:57:44.276Z,57.19
2023-10-11T15:00:47.685Z,57.12
2023-10-11T15:03:50.916Z,57.15
2023-10-11T15:06:53.755Z,57.04
2023-10-11T15:09:58.038Z,57.21
2023-10-11T15:13:02.238Z,57.30
2023-10-11T15:16:06.164Z,57.66
2023-10-11T15:19:10.857Z,58.20
2023-10-11T15:22:16.182Z,58.21
2023-10-11T15:25:20.339Z,57.99
2023-10-11T15:28:23.886Z,57.90
2023-10-11T15:31:31.910Z,57.78
2023-10-11T15:34:35.325Z,57.69
2023-10-11T15:37:38.123Z,57.72
2023-10-11T15:40:42.238Z,58.01
2023-10-11T15:43:45.054Z,58.29
2023-10-11T15:46:47.895Z,58.13
2023-10-11T15:49:58.531Z,57.91
2023-10-11T15:53:01.888Z,57.92
2023-10-11T15:56:07.734Z,57.65
2023-10-11T15:59:10.586Z,57.46
2023-10-11T16:02:13.458Z,57.64
2023-10-11T16:05:18.311Z,57.88
2023-10-11T16:08:21.130Z,57.59
2023-10-11T16:11:25.663Z,57.64
2023-10-11T16:14:28.454Z,57.46
2023-10-11T16:17:31.255Z,57.43
2023-10-11T16:20:34.097Z,57.48
2023-10-11T16:23:39.904Z,57.41
2023-10-11T16:26:44.134Z,57.22
2023-10-11T16:29:46.965Z,57.30
2023-10-11T16:32:55.303Z,57.33
2023-10-11T16:36:00.514Z,57.18
2023-10-11T16:39:03.871Z,57.25
2023-10-11T16:42:08.216Z,57.23
2023-10-11T16:45:15.040Z,57.43
2023-10-11T16:48:19.938Z,57.41
2023-10-11T16:51:22.900Z,57.34
2023-10-11T16:54:26.533Z,57.17
2023-10-11T16:57:30.815Z,57.38
2023-10-11T17:00:34.786Z,57.24
2023-10-11T17:03:38.107Z,57.30
2023-10-11T17:06:41.064Z,57.48
2023-10-11T17:09:43.931Z,57.41
2023-10-11T17:12:48.291Z,57.41
2023-10-11T17:15:51.155Z,57.33
2023-10-11T17:18:53.990Z,57.33
2023-10-11T17:21:57.051Z,57.42
2023-10-11T17:25:00.210Z,57.30
2023-10-11T17:28:05.653Z,57.23
2023-10-11T17:31:09.457Z,57.48
2023-10-11T17:34:16.203Z,57.38
2023-10-11T17:37:20.182Z,57.44
2023-10-11T17:40:28.314Z,57.51
2023-10-11T17:43:32.533Z,57.31
2023-10-11T17:46:35.416Z,57.41
2023-10-11T17:49:38.275Z,57.45
2023-10-11T17:52:42.057Z,57.53
2023-10-11T17:55:44.879Z,57.63
2023-10-11T17:58:49.477Z,57.67
2023-10-11T18:01:52.696Z,57.70
2023-10-11T18:04:56.453Z,57.85
2023-10-11T18:07:59.690Z,57.82
2023-10-11T18:11:02.604Z,57.81
2023-10-11T18:14:08.082Z,58.04
2023-10-11T18:17:13.123Z,57.87
2023-10-11T18:20:16.810Z,58.02
2023-10-11T18:23:22.345Z,57.97
2023-10-11T18:26:25.181Z,57.98
2023-10-11T18:29:29.354Z,58.13
2023-10-11T18:32:37.146Z,58.16
2023-10-11T18:35:41.654Z,58.08
2023-10-11T18:38:45.184Z,58.31
2023-10-11T18:41:48.029Z,58.29
2023-10-11T18:44:52.426Z,58.28
2023-10-11T18:47:56.761Z,58.43
2023-10-11T18:50:59.624Z,58.31
2023-10-11T18:54:02.574Z,58.36
2023-10-11T18:57:07.713Z,58.52
2023-10-11T19:00:13.741Z,58.29
2023-10-11T19:03:19.548Z,58.36
2023-10-11T19:06:25.095Z,58.30
2023-10-11T19:09:27.967Z,58.35
2023-10-11T19:12:33.898Z,58.48
2023-10-11T19:15:42.296Z,58.40
2023-10-11T19:18:46.022Z,58.38
2023-10-11T19:21:49.097Z,58.33
2023-10-11T19:24:52.035Z,58.43
2023-10-11T19:27:56.375Z,58.42
2023-10-11T19:31:00.755Z,58.43
2023-10-11T19:34:03.730Z,58.59
2023-10-11T19:37:08.854Z,58.43
2023-10-11T19:40:16.592Z,58.51
2023-10-11T19:43:19.833Z,58.54
2023-10-11T19:46:25.368Z,58.42
2023-10-11T19:49:28.347Z,58.43
2023-10-11T19:52:31.185Z,58.39
2023-10-11T19:55:34.009Z,58.51
2023-10-11T19:58:37.549Z,58.66
2023-10-11T20:01:43.239Z,58.55
2023-10-11T20:04:47.584Z,58.61
2023-10-11T20:07:50.503Z,58.62
2023-10-11T20:11:01.290Z,58.50
2023-10-11T20:14:04.486Z,58.63
2023-10-11T20:17:08.593Z,58.80
2023-10-11T20:20:13.563Z,58.79
2023-10-11T20:23:17.941Z,58.78
2023-10-11T20:26:23.364Z,58.67
2023-10-11T20:29:26.213Z,58.63
2023-10-11T20:32:32.324Z,58.65
2023-10-11T20:35:35.188Z,58.76
2023-10-11T20:38:39.975Z,58.56
2023-10-11T20:41:42.825Z,58.69
2023-10-11T20:44:45.648Z,58.59
2023-10-11T20:47:53.169Z,58.74
2023-10-11T20:50:56.023Z,58.79
2023-10-11T20:53:59.040Z,58.65
2023-10-11T20:57:03.093Z,58.58
2023-10-11T21:00:15.180Z,58.74
2023-10-11T21:03:21.191Z,58.72
2023-10-11T21:06:24.572Z,58.68
2023-10-11T21:09:31.538Z,58.88
2023-10-11T21:12:34.371Z,58.76
2023-10-11T21:15:38.151Z,58.81
2023-10-11T21:18:43.056Z,59.05
2023-10-11T21:21:48.796Z,59.08
2023-10-11T21:24:51.653Z,59.01
2023-10-11T21:27:54.559Z,59.06
2023-10-11T21:30:57.769Z,59.06
2023-10-11T21:34:02.390Z,58.94
2023-10-11T21:37:07.584Z,58.80
2023-10-11T21:40:14.833Z,58.70
2023-10-11T21:43:17.856Z,58.79
2023-10-11T21:46:21.011Z,58.93
2023-10-11T21:49:25.986Z,58.88
2023-10-11T21:52:28.826Z,58.93
2023-10-11T21:55:31.892Z,58.84
2023-10-11T21:58:34.689Z,59.03
2023-10-11T22:01:37.490Z,58.96
2023-10-11T22:04:41.658Z,58.78
2023-10-11T22:07:47.925Z,58.67
2023-10-11T22:10:51.116Z,58.72
2023-10-11T22:13:57.362Z,58.81
2023-10-11T22:17:00.668Z,58.69
2023-10-11T22:20:06.571Z,58.84
2023-10-11T22:23:09.354Z,58.90
2023-10-11T22:26:15.145Z,58.71
2023-10-11T22:29:19.322Z,58.77
2023-10-11T22:32:24.768Z,58.68
2023-10-11T22:35:31.652Z,58.70
2023-10-11T22:38:34.452Z,58.66
2023-10-11T22:41:37.241Z,58.72
2023-10-11T22:44:40.348Z,58.64
2023-10-11T22:47:43.166Z,58.48
2023-10-11T22:50:47.424Z,58.67
2023-10-11T22:54:01.148Z,58.66
2023-10-11T22:57:04.617Z,58.74
2023-10-11T23:00:18.990Z,58.70
2023-10-11T23:03:22.304Z,58.73
2023-10-11T23:06:27.422Z,58.78
2023-10-11T23:09:34.165Z,58.67
2023-10-11T23:12:47.274Z,58.58
2023-10-11T23:15:55.283Z,58.51
2023-10-11T23:19:20.215Z,58.65
2023-10-11T23:22:24.895Z,58.51
2023-10-11T23:25:28.061Z,58.63
2023-10-11T23:28:30.829Z,58.60
2023-10-11T23:31:38.327Z,58.68
2023-10-11T23:34:41.561Z,58.67
2023-10-11T23:37:49.789Z,58.65
2023-10-11T23:40:55.838Z,58.55
2023-10-11T23:44:01.064Z,58.64
2023-10-11T23:47:11.336Z,58.57
2023-10-11T23:50:21.454Z,58.69
2023-10-11T23:53:31.415Z,58.48
2023-10-11T23:56:34.205Z,58.51
2023-10-11T23:59:38.135Z,58.57
